createdAt,value
2023-01-19T00:01:30.141Z,-1.87
2023-01-19T00:03:58.538Z,-1.97
2023-01-19T00:06:25.933Z,-1.98
2023-01-19T00:08:53.487Z,-2.21
2023-01-19T00:11:20.820Z,-2.25
2023-01-19T00:13:53.952Z,-2.33
2023-01-19T00:16:23.613Z,-2.29
2023-01-19T00:18:52.150Z,-2.05
2023-01-19T00:21:20.051Z,-2.14
2023-01-19T00:23:47.788Z,-2.18
2023-01-19T00:26:22.548Z,-2.24
2023-01-19T00:28:50.654Z,-1.80
2023-01-19T00:31:20.901Z,-1.75
2023-01-19T00:33:49.526Z,-1.90
2023-01-19T00:36:17.037Z,-2.05
2023-01-19T00:38:45.381Z,-2.13
2023-01-19T00:41:19.497Z,-1.97
2023-01-19T00:43:47.473Z,-1.98
2023-01-19T00:46:14.455Z,-1.79
2023-01-19T00:48:42.075Z,-1.74
2023-01-19T00:51:09.266Z,-1.87
2023-01-19T00:53:36.238Z,-1.86
2023-01-19T00:56:03.218Z,-1.96
2023-01-19T00:58:30.138Z,-1.81
2023-01-19T01:01:03.915Z,-2.04
2023-01-19T01:03:31.246Z,-1.84
2023-01-19T01:05:58.518Z,-2.01
2023-01-19T01:08:25.760Z,-2.27
2023-01-19T01:10:54.748Z,-2.42
2023-01-19T01:13:24.777Z,-2.43
2023-01-19T01:15:56.412Z,-2.32
2023-01-19T01:18:24.274Z,-2.26
2023-01-19T01:20:51.197Z,-2.21
2023-01-19T01:23:23.135Z,-2.24
2023-01-19T01:25:50.199Z,-2.13
2023-01-19T01:28:17.119Z,-1.94
2023-01-19T01:30:46.176Z,-2.10
2023-01-19T01:33:13.630Z,-2.39
2023-01-19T01:35:42.114Z,-2.23
2023-01-19T01:38:10.579Z,-2.32
2023-01-19T01:40:42.270Z,-2.34
2023-01-19T01:43:13.153Z,-2.05
2023-01-19T01:45:40.968Z,-1.76
2023-01-19T01:48:11.156Z,-2.24
2023-01-19T01:51:00.777Z,-2.01
2023-01-19T01:53:29.299Z,-2.03
2023-01-19T01:55:58.329Z,-2.24
2023-01-19T01:58:27.854Z,-2.16
2023-01-19T02:01:14.102Z,-2.18
2023-01-19T02:03:41.695Z,-2.12
2023-01-19T02:06:10.520Z,-1.93
2023-01-19T02:09:11.696Z,-2.13
2023-01-19T02:11:58.434Z,-1.91
2023-01-19T02:14:25.665Z,-2.23
2023-01-19T02:16:54.822Z,-2.25
2023-01-19T02:19:30.042Z,-2.12
2023-01-19T02:22:04.397Z,-2.16
2023-01-19T02:24:31.895Z,-2.35
2023-01-19T02:26:59.640Z,-2.47
2023-01-19T02:29:26.934Z,-2.57
2023-01-19T02:31:56.666Z,-2.36
2023-01-19T02:34:30.339Z,-2.10
2023-01-19T02:36:58.777Z,-2.24
2023-01-19T02:39:38.998Z,-2.23
2023-01-19T02:42:12.354Z,-2.45
2023-01-19T02:44:40.472Z,-2.23
2023-01-19T02:47:09.902Z,-2.39
2023-01-19T02:49:37.891Z,-2.20
2023-01-19T02:52:05.253Z,-2.19
2023-01-19T02:54:50.878Z,-2.33
2023-01-19T02:57:22.040Z,-2.05
2023-01-19T03:00:10.445Z,-2.16
2023-01-19T03:02:51.350Z,-2.08
2023-01-19T03:05:26.319Z,-2.17
2023-01-19T03:08:18.342Z,-2.16
2023-01-19T03:11:01.058Z,-1.98
2023-01-19T03:13:47.491Z,-1.77
2023-01-19T03:16:34.434Z,-1.87
2023-01-19T03:19:07.255Z,-1.86
2023-01-19T03:21:37.100Z,-1.89
2023-01-19T03:24:06.736Z,-1.94
2023-01-19T03:26:37.517Z,-2.04
2023-01-19T03:29:07.275Z,-2.09
2023-01-19T03:31:38.479Z,-2.19
2023-01-19T03:34:08.586Z,-2.28
2023-01-19T03:36:41.869Z,-2.16
2023-01-19T03:39:10.146Z,-2.21
2023-01-19T03:41:41.320Z,-2.22
2023-01-19T03:44:12.426Z,-2.12
2023-01-19T03:46:40.775Z,-1.92
2023-01-19T03:49:08.787Z,-1.71
2023-01-19T03:51:36.873Z,-1.55
2023-01-19T03:54:05.920Z,-1.56
2023-01-19T03:56:33.698Z,-1.70
2023-01-19T03:59:00.962Z,-1.49
2023-01-19T04:01:29.349Z,-1.58
2023-01-19T04:03:56.696Z,-1.67
2023-01-19T04:06:29.925Z,-1.90
2023-01-19T04:08:56.801Z,-2.03
2023-01-19T04:11:38.139Z,-2.02
2023-01-19T04:14:06.117Z,-1.98
2023-01-19T04:16:34.637Z,-1.99
2023-01-19T04:19:02.006Z,-1.59
2023-01-19T04:21:28.998Z,-1.43
2023-01-19T04:23:55.922Z,-1.41
2023-01-19T04:26:24.101Z,-1.33
2023-01-19T04:28:51.332Z,-1.36
2023-01-19T04:31:19.787Z,-1.44
2023-01-19T04:33:46.681Z,-1.67
2023-01-19T04:36:13.723Z,-1.80
2023-01-19T04:38:42.405Z,-1.83
2023-01-19T04:41:10.283Z,-1.83
2023-01-19T04:43:38.160Z,-1.80
2023-01-19T04:46:06.290Z,-1.50
2023-01-19T04:48:33.623Z,-1.33
2023-01-19T04:51:01.594Z,-1.30
2023-01-19T04:53:35.934Z,-1.18
2023-01-19T04:56:04.213Z,-1.27
2023-01-19T04:58:37.375Z,-1.34
2023-01-19T05:01:07.632Z,-1.30
2023-01-19T05:03:36.206Z,-1.10
2023-01-19T05:06:05.396Z,-0.94
2023-01-19T05:08:32.397Z,-0.79
2023-01-19T05:11:01.908Z,-0.87
2023-01-19T05:13:29.283Z,-1.01
2023-01-19T05:15:56.304Z,-0.89
2023-01-19T05:18:23.977Z,-0.72
2023-01-19T05:20:51.152Z,-0.85
2023-01-19T05:23:20.523Z,-0.95
2023-01-19T05:25:47.804Z,-1.09
2023-01-19T05:28:15.622Z,-1.18
2023-01-19T05:30:42.664Z,-1.21
2023-01-19T05:33:10.681Z,-1.22
2023-01-19T05:35:37.631Z,-1.16
2023-01-19T05:38:07.016Z,-1.08
2023-01-19T05:40:40.195Z,-1.02
2023-01-19T05:43:08.219Z,-0.79
2023-01-19T05:45:39.128Z,-0.79
2023-01-19T05:48:09.363Z,-0.80
2023-01-19T05:50:36.912Z,-0.63
2023-01-19T05:53:04.487Z,-0.30
2023-01-19T05:55:32.834Z,-0.12
2023-01-19T05:57:59.891Z,-0.12
2023-01-19T06:00:27.903Z,-0.03
2023-01-19T06:02:55.278Z,0.02
2023-01-19T06:05:22.536Z,0.05
2023-01-19T06:07:51.607Z,0.09
2023-01-19T06:10:19.004Z,0.09
2023-01-19T06:12:46.371Z,0.09
2023-01-19T06:15:15.747Z,0.12
2023-01-19T06:17:43.382Z,0.09
2023-01-19T06:20:11.113Z,0.04
2023-01-19T06:22:38.339Z,0.08
2023-01-19T06:25:05.461Z,0.14
2023-01-19T06:27:32.744Z,0.14
2023-01-19T06:29:59.651Z,0.14
2023-01-19T06:32:26.663Z,0.23
2023-01-19T06:34:54.667Z,0.21
2023-01-19T06:37:22.640Z,0.20
2023-01-19T06:39:49.539Z,0.23
2023-01-19T06:42:28.807Z,0.16
2023-01-19T06:44:55.759Z,0.20
2023-01-19T06:47:22.598Z,0.21
2023-01-19T06:49:49.909Z,0.17
2023-01-19T06:52:18.616Z,0.15
2023-01-19T06:54:46.463Z,0.10
2023-01-19T06:57:14.469Z,0.12
2023-01-19T06:59:41.948Z,0.05
2023-01-19T07:02:26.346Z,0.12
2023-01-19T07:04:55.903Z,0.08
2023-01-19T07:07:24.408Z,0.14
2023-01-19T07:09:54.369Z,0.23
2023-01-19T07:12:22.571Z,0.30
2023-01-19T07:14:49.882Z,0.33
2023-01-19T07:17:17.206Z,0.40
2023-01-19T07:19:44.909Z,0.44
2023-01-19T07:22:13.167Z,0.43
2023-01-19T07:24:41.408Z,0.47
2023-01-19T07:27:08.831Z,0.54
2023-01-19T07:29:35.722Z,0.53
2023-01-19T07:32:03.117Z,0.56
2023-01-19T07:34:30.444Z,0.47
2023-01-19T07:36:59.624Z,0.54
2023-01-19T07:39:27.894Z,0.56
2023-01-19T07:41:54.881Z,0.58
2023-01-19T07:44:21.800Z,0.62
2023-01-19T07:46:49.608Z,0.73
2023-01-19T07:49:17.787Z,0.73
2023-01-19T07:51:44.722Z,0.82
2023-01-19T07:54:11.874Z,0.76
2023-01-19T07:56:39.104Z,0.82
2023-01-19T07:59:07.664Z,0.86
2023-01-19T08:01:34.604Z,0.85
2023-01-19T08:04:01.540Z,0.87
2023-01-19T08:06:33.176Z,0.73
2023-01-19T08:09:02.767Z,0.64
2023-01-19T08:11:30.043Z,0.72
2023-01-19T08:13:57.470Z,0.70
2023-01-19T08:16:24.627Z,0.69
2023-01-19T08:18:51.571Z,0.66
2023-01-19T08:21:18.773Z,0.58
2023-01-19T08:23:50.804Z,0.52
2023-01-19T08:26:24.138Z,0.60
2023-01-19T08:28:51.043Z,0.70
2023-01-19T08:31:21.704Z,0.74
2023-01-19T08:33:50.392Z,0.80
2023-01-19T08:36:18.745Z,0.75
2023-01-19T08:38:46.277Z,0.80
2023-01-19T08:41:13.776Z,0.82
2023-01-19T08:43:42.866Z,0.86
2023-01-19T08:46:09.985Z,0.91
2023-01-19T08:48:39.718Z,0.91
2023-01-19T08:51:06.776Z,0.97
2023-01-19T08:53:34.410Z,1.05
2023-01-19T08:56:02.846Z,1.07
2023-01-19T08:58:30.001Z,1.05
2023-01-19T09:01:00.176Z,1.03
2023-01-19T09:03:27.604Z,1.05
2023-01-19T09:05:54.501Z,0.83
2023-01-19T09:08:21.503Z,1.03
2023-01-19T09:10:49.768Z,0.99
2023-01-19T09:13:17.551Z,1.01
2023-01-19T09:15:45.030Z,1.04
2023-01-19T09:18:16.156Z,1.04
2023-01-19T09:20:43.976Z,0.95
2023-01-19T09:23:12.739Z,0.96
2023-01-19T09:25:40.171Z,1.08
2023-01-19T09:28:09.351Z,1.16
2023-01-19T09:30:38.078Z,1.18
2023-01-19T09:33:08.636Z,1.21
2023-01-19T09:35:35.742Z,1.25
2023-01-19T09:38:02.986Z,1.19
2023-01-19T09:40:30.201Z,1.23
2023-01-19T09:43:12.295Z,1.15
2023-01-19T09:45:53.742Z,1.18
2023-01-19T09:48:39.098Z,1.12
2023-01-19T09:51:11.420Z,1.16
2023-01-19T09:53:51.033Z,1.19
2023-01-19T09:56:20.496Z,1.28
2023-01-19T09:58:48.959Z,1.22
2023-01-19T10:01:24.677Z,1.30
2023-01-19T10:03:54.751Z,1.34
2023-01-19T10:06:22.135Z,1.39
2023-01-19T10:08:57.479Z,1.24
2023-01-19T10:11:34.510Z,1.22
2023-01-19T10:14:17.400Z,1.20
2023-01-19T10:16:57.495Z,1.16
2023-01-19T10:19:28.041Z,1.07
2023-01-19T10:22:00.140Z,1.14
2023-01-19T10:24:35.193Z,0.80
2023-01-19T10:27:02.780Z,0.83
2023-01-19T10:29:37.965Z,0.65
2023-01-19T10:32:08.002Z,0.75
2023-01-19T10:34:35.495Z,0.81
2023-01-19T10:37:18.286Z,0.84
2023-01-19T10:39:52.745Z,0.97
2023-01-19T10:42:20.100Z,0.97
2023-01-19T10:44:50.042Z,1.11
2023-01-19T10:47:19.565Z,1.07
2023-01-19T10:49:48.314Z,1.18
2023-01-19T10:52:21.257Z,1.10
2023-01-19T10:54:51.097Z,1.07
2023-01-19T10:57:27.381Z,1.07
2023-01-19T10:59:56.670Z,1.07
2023-01-19T11:02:27.991Z,1.06
2023-01-19T11:04:56.768Z,1.04
2023-01-19T11:07:35.981Z,0.98
2023-01-19T11:10:21.218Z,1.06
2023-01-19T11:12:55.769Z,1.07
2023-01-19T11:15:24.518Z,1.09
2023-01-19T11:17:58.063Z,1.07
2023-01-19T11:20:33.452Z,1.06
2023-01-19T11:23:16.352Z,0.94
2023-01-19T11:25:46.380Z,0.80
2023-01-19T11:28:20.987Z,0.98
2023-01-19T11:31:14.260Z,0.99
2023-01-19T11:33:50.899Z,0.92
2023-01-19T11:36:21.419Z,1.02
2023-01-19T11:38:50.923Z,0.94
2023-01-19T11:41:24.796Z,1.03
2023-01-19T11:44:22.118Z,0.96
2023-01-19T11:46:53.719Z,1.01
2023-01-19T11:49:20.860Z,1.05
2023-01-19T11:51:59.787Z,1.00
2023-01-19T11:54:30.604Z,1.03
2023-01-19T11:56:59.408Z,1.00
2023-01-19T11:59:26.799Z,1.03
2023-01-19T12:01:57.818Z,0.94
2023-01-19T12:04:34.616Z,0.97
2023-01-19T12:07:07.800Z,0.97
2023-01-19T12:09:46.624Z,0.80
2023-01-19T12:12:16.361Z,0.98
2023-01-19T12:14:46.681Z,0.98
2023-01-19T12:17:26.221Z,0.90
2023-01-19T12:20:04.155Z,0.95
2023-01-19T12:22:37.654Z,1.02
2023-01-19T12:25:25.399Z,0.97
2023-01-19T12:27:53.460Z,1.04
2023-01-19T12:30:25.714Z,1.09
2023-01-19T12:33:12.581Z,1.18
2023-01-19T12:35:57.194Z,1.14
2023-01-19T12:38:24.115Z,1.06
2023-01-19T12:40:51.356Z,1.18
2023-01-19T12:43:19.827Z,1.23
2023-01-19T12:45:48.352Z,1.26
2023-01-19T12:48:26.824Z,1.27
2023-01-19T12:50:54.094Z,1.11
2023-01-19T12:53:22.818Z,1.01
2023-01-19T12:56:01.381Z,1.18
2023-01-19T12:58:28.877Z,1.27
2023-01-19T13:01:16.240Z,1.26
2023-01-19T13:03:45.688Z,1.18
2023-01-19T13:06:13.022Z,1.16
2023-01-19T13:08:59.307Z,1.11
2023-01-19T13:11:34.712Z,1.31
2023-01-19T13:14:01.995Z,1.19
2023-01-19T13:16:29.078Z,1.09
2023-01-19T13:19:00.884Z,1.04
2023-01-19T13:21:33.250Z,1.07
2023-01-19T13:24:01.783Z,1.07
2023-01-19T13:26:49.235Z,1.06
2023-01-19T13:29:19.880Z,0.96
2023-01-19T13:31:56.488Z,0.93
2023-01-19T13:34:25.034Z,0.77
2023-01-19T13:36:53.642Z,0.67
2023-01-19T13:39:26.375Z,0.58
2023-01-19T13:41:55.956Z,0.50
2023-01-19T13:44:25.988Z,0.40
2023-01-19T13:46:55.413Z,0.44
2023-01-19T13:49:44.072Z,0.34
2023-01-19T13:52:27.788Z,0.33
2023-01-19T13:54:56.085Z,0.28
2023-01-19T13:57:28.115Z,0.43
2023-01-19T14:00:07.138Z,0.76
2023-01-19T14:02:34.681Z,0.57
2023-01-19T14:05:20.176Z,0.57
2023-01-19T14:07:59.548Z,0.30
2023-01-19T14:10:27.006Z,0.34
2023-01-19T14:13:04.348Z,0.23
2023-01-19T14:15:34.991Z,0.23
2023-01-19T14:18:22.623Z,0.34
2023-01-19T14:21:06.362Z,0.38
2023-01-19T14:23:48.399Z,0.53
2023-01-19T14:26:35.353Z,0.33
2023-01-19T14:29:07.923Z,0.32
2023-01-19T14:31:42.752Z,0.18
2023-01-19T14:34:29.193Z,0.15
2023-01-19T14:36:56.251Z,0.12
2023-01-19T14:39:24.928Z,0.24
2023-01-19T14:41:53.834Z,0.09
2023-01-19T14:44:30.034Z,0.14
2023-01-19T14:46:59.766Z,0.10
2023-01-19T14:49:30.739Z,0.14
2023-01-19T14:51:57.856Z,0.33
2023-01-19T14:54:36.371Z,0.32
2023-01-19T14:57:14.171Z,0.33
2023-01-19T14:59:41.738Z,0.33
2023-01-19T15:02:14.781Z,0.33
2023-01-19T15:04:42.197Z,0.24
2023-01-19T15:07:16.194Z,0.30
2023-01-19T15:09:44.790Z,0.27
2023-01-19T15:12:14.253Z,0.22
2023-01-19T15:14:44.597Z,0.36
2023-01-19T15:17:28.267Z,0.37
2023-01-19T15:19:56.307Z,0.26
2023-01-19T15:22:27.042Z,0.41
2023-01-19T15:24:57.820Z,0.45
2023-01-19T15:27:25.280Z,0.39
2023-01-19T15:29:52.227Z,0.45
2023-01-19T15:32:19.526Z,0.33
2023-01-19T15:34:47.061Z,0.30
2023-01-19T15:37:14.498Z,0.52
2023-01-19T15:39:41.543Z,0.59
2023-01-19T15:42:14.947Z,0.51
2023-01-19T15:44:42.983Z,0.41
2023-01-19T15:47:11.104Z,0.45
2023-01-19T15:49:38.410Z,0.39
2023-01-19T15:52:05.873Z,0.41
2023-01-19T15:54:33.257Z,0.46
2023-01-19T15:57:00.259Z,0.37
2023-01-19T15:59:29.727Z,0.33
2023-01-19T16:01:56.965Z,0.23
2023-01-19T16:04:24.144Z,0.32
2023-01-19T16:06:52.180Z,0.19
2023-01-19T16:09:20.390Z,0.42
2023-01-19T16:11:47.525Z,0.38
2023-01-19T16:14:16.646Z,0.35
2023-01-19T16:16:46.522Z,0.42
2023-01-19T16:19:16.304Z,0.41
2023-01-19T16:21:44.340Z,0.26
2023-01-19T16:24:11.439Z,0.22
2023-01-19T16:26:38.453Z,0.18
2023-01-19T16:29:10.167Z,0.23
2023-01-19T16:31:38.671Z,0.16
2023-01-19T16:34:07.322Z,0.01
2023-01-19T16:36:37.128Z,-0.03
2023-01-19T16:39:08.349Z,0.02
2023-01-19T16:41:37.397Z,0.02
2023-01-19T16:44:11.811Z,-0.06
2023-01-19T16:46:44.060Z,0.06
2023-01-19T16:49:16.869Z,-0.10
2023-01-19T16:51:44.877Z,-0.28
2023-01-19T16:54:21.206Z,-0.36
2023-01-19T16:56:48.963Z,-0.44
2023-01-19T16:59:17.675Z,-0.46
2023-01-19T17:01:46.998Z,-0.41
2023-01-19T17:04:16.699Z,-0.53
2023-01-19T17:06:46.778Z,-0.61
2023-01-19T17:09:14.827Z,-0.57
2023-01-19T17:11:49.358Z,-0.02
2023-01-19T17:14:17.907Z,-0.15
2023-01-19T17:16:46.929Z,-0.20
2023-01-19T17:19:15.159Z,-0.30
2023-01-19T17:21:49.364Z,-0.30
2023-01-19T17:24:18.353Z,-0.49
2023-01-19T17:26:48.983Z,-0.38
2023-01-19T17:29:17.407Z,-0.30
2023-01-19T17:31:46.213Z,-0.20
2023-01-19T17:34:15.098Z,-0.34
2023-01-19T17:36:42.567Z,-0.39
2023-01-19T17:39:15.129Z,-0.56
2023-01-19T17:41:42.847Z,-0.43
2023-01-19T17:44:11.185Z,-0.63
2023-01-19T17:46:39.666Z,-0.65
2023-01-19T17:49:14.101Z,-0.27
2023-01-19T17:51:42.480Z,-0.16
2023-01-19T17:54:12.008Z,-0.38
2023-01-19T17:56:43.333Z,-0.52
2023-01-19T17:59:11.192Z,-0.32
2023-01-19T18:01:40.920Z,-0.45
2023-01-19T18:04:09.253Z,-0.29
2023-01-19T18:06:42.717Z,-0.39
2023-01-19T18:09:12.401Z,-0.53
2023-01-19T18:11:40.589Z,-0.74
2023-01-19T18:14:09.985Z,-0.73
2023-01-19T18:16:37.387Z,-0.62
2023-01-19T18:19:05.014Z,-0.88
2023-01-19T18:21:34.013Z,-0.94
2023-01-19T18:24:09.033Z,-1.12
2023-01-19T18:26:38.357Z,-1.24
2023-01-19T18:29:06.419Z,-1.24
2023-01-19T18:31:43.670Z,-1.08
2023-01-19T18:34:13.161Z,-0.81
2023-01-19T18:36:41.064Z,-0.59
2023-01-19T18:39:10.340Z,-0.96
2023-01-19T18:41:44.499Z,-1.28
2023-01-19T18:44:13.417Z,-1.39
2023-01-19T18:46:43.207Z,-1.29
2023-01-19T18:49:11.817Z,-0.91
2023-01-19T18:51:41.311Z,-0.96
2023-01-19T18:54:11.758Z,-1.00
2023-01-19T18:56:45.882Z,-1.14
2023-01-19T18:59:15.278Z,-1.38
2023-01-19T19:01:43.996Z,-1.44
2023-01-19T19:04:12.360Z,-1.54
2023-01-19T19:06:40.573Z,-1.61
2023-01-19T19:09:12.723Z,-1.64
2023-01-19T19:11:40.498Z,-1.73
2023-01-19T19:14:07.733Z,-1.79
2023-01-19T19:16:42.054Z,-1.76
2023-01-19T19:19:15.076Z,-1.81
2023-01-19T19:21:43.429Z,-1.90
2023-01-19T19:24:12.564Z,-1.88
2023-01-19T19:26:42.821Z,-1.85
2023-01-19T19:29:10.894Z,-1.87
2023-01-19T19:31:38.858Z,-2.02
2023-01-19T19:34:06.775Z,-1.96
2023-01-19T19:36:36.805Z,-1.68
2023-01-19T19:39:07.698Z,-1.72
2023-01-19T19:41:38.109Z,-1.73
2023-01-19T19:44:06.411Z,-1.77
2023-01-19T19:46:35.522Z,-1.79
2023-01-19T19:49:03.824Z,-1.69
2023-01-19T19:51:32.761Z,-1.77
2023-01-19T19:54:01.232Z,-1.86
2023-01-19T19:56:33.148Z,-1.84
2023-01-19T19:59:08.498Z,-1.82
2023-01-19T20:01:36.451Z,-1.56
2023-01-19T20:04:11.571Z,-1.43
2023-01-19T20:06:46.443Z,-1.49
2023-01-19T20:09:15.636Z,-1.35
2023-01-19T20:11:45.433Z,-1.50
2023-01-19T20:14:17.020Z,-1.40
2023-01-19T20:16:46.845Z,-1.53
2023-01-19T20:19:14.979Z,-1.39
2023-01-19T20:21:43.418Z,-1.37
2023-01-19T20:24:16.971Z,-1.46
2023-01-19T20:26:46.503Z,-1.37
2023-01-19T20:29:14.441Z,-1.38
2023-01-19T20:31:47.821Z,-1.52
2023-01-19T20:34:17.695Z,-1.63
2023-01-19T20:36:50.023Z,-1.81
2023-01-19T20:39:21.701Z,-1.89
2023-01-19T20:41:51.454Z,-1.95
2023-01-19T20:44:24.336Z,-2.05
2023-01-19T20:46:52.216Z,-1.89
2023-01-19T20:49:28.162Z,-1.75
2023-01-19T20:51:58.848Z,-1.51
2023-01-19T20:54:28.276Z,-1.63
2023-01-19T20:56:56.247Z,-1.60
2023-01-19T20:59:24.298Z,-1.69
2023-01-19T21:01:52.913Z,-1.51
2023-01-19T21:04:23.319Z,-1.27
2023-01-19T21:06:51.588Z,-1.44
2023-01-19T21:09:19.105Z,-1.43
2023-01-19T21:11:46.114Z,-1.28
2023-01-19T21:14:13.265Z,-1.68
2023-01-19T21:16:42.953Z,-1.82
2023-01-19T21:19:10.705Z,-1.60
2023-01-19T21:21:38.413Z,-1.64
2023-01-19T21:24:05.894Z,-1.78
2023-01-19T21:26:33.796Z,-1.54
2023-01-19T21:29:02.174Z,-1.49
2023-01-19T21:31:29.852Z,-1.32
2023-01-19T21:33:58.458Z,-1.77
2023-01-19T21:36:26.290Z,-1.79
2023-01-19T21:39:00.924Z,-1.92
2023-01-19T21:41:28.988Z,-1.63
2023-01-19T21:43:56.093Z,-1.70
2023-01-19T21:46:32.487Z,-1.58
2023-01-19T21:49:01.604Z,-1.79
2023-01-19T21:51:29.270Z,-1.89
2023-01-19T21:53:59.870Z,-1.92
2023-01-19T21:56:27.464Z,-1.92
2023-01-19T21:58:56.160Z,-1.87
2023-01-19T22:01:25.708Z,-1.88
2023-01-19T22:03:57.701Z,-1.91
2023-01-19T22:06:25.484Z,-1.99
2023-01-19T22:08:55.188Z,-2.03
2023-01-19T22:11:22.759Z,-1.99
2023-01-19T22:13:51.928Z,-1.98
2023-01-19T22:16:20.292Z,-2.06
2023-01-19T22:18:51.235Z,-1.66
2023-01-19T22:21:19.919Z,-1.59
2023-01-19T22:23:51.189Z,-1.68
2023-01-19T22:26:18.883Z,-1.79
2023-01-19T22:28:46.969Z,-1.81
2023-01-19T22:31:20.163Z,-1.85
2023-01-19T22:33:49.389Z,-1.84
2023-01-19T22:36:20.040Z,-1.81
2023-01-19T22:38:55.078Z,-1.71
2023-01-19T22:41:26.366Z,-1.79
2023-01-19T22:43:55.303Z,-1.73
2023-01-19T22:46:23.291Z,-1.55
2023-01-19T22:48:51.247Z,-1.77
2023-01-19T22:51:18.732Z,-1.87
2023-01-19T22:53:45.730Z,-1.96
2023-01-19T22:56:15.454Z,-1.71
2023-01-19T22:58:48.516Z,-1.59
2023-01-19T23:01:20.922Z,-1.49
2023-01-19T23:03:48.582Z,-1.59
2023-01-19T23:06:27.598Z,-1.84
2023-01-19T23:08:55.781Z,-1.89
2023-01-19T23:11:28.549Z,-1.99
2023-01-19T23:13:55.945Z,-1.75
2023-01-19T23:16:29.115Z,-1.69
2023-01-19T23:18:57.280Z,-1.63
2023-01-19T23:21:26.925Z,-1.58
2023-01-19T23:23:57.190Z,-1.49
2023-01-19T23:26:25.102Z,-1.51
2023-01-19T23:28:57.053Z,-1.50
2023-01-19T23:31:28.295Z,-1.36
2023-01-19T23:33:56.770Z,-1.47
2023-01-19T23:36:25.064Z,-1.47
2023-01-19T23:38:54.433Z,-1.45
2023-01-19T23:41:30.046Z,-1.45
2023-01-19T23:43:57.554Z,-1.69
2023-01-19T23:46:24.749Z,-1.67
2023-01-19T23:48:51.748Z,-1.68
2023-01-19T23:51:21.257Z,-1.94
2023-01-19T23:53:48.198Z,-1.90
2023-01-19T23:56:17.680Z,-2.04
2023-01-19T23:58:47.631Z,-2.15
